Time;durP1;ratioP1;P1;durP2;ratioP2;P2;SDS_P1;SDS_P2;PMS_P1;PMS_P2;Temp;Humidity;BMP_temperature;BMP_pressure;BME280_temperature;BME280_humidity;BME280_pressure;Samples;Min_cycle;Max_cycle;Signal;HPM_P1;HPM_P2
2023/10/19 00:00:36;;;;;;;13.63;7.03;;;10.90;99.90;;;;;;5024701;28;20037;-72
2023/10/19 00:03:06;;;;;;;13.25;7.70;;;11.00;99.90;;;;;;5028962;28;20462;-72
2023/10/19 00:05:35;;;;;;;12.98;7.32;;;11.00;99.90;;;;;;5029643;28;20026;-71
2023/10/19 00:08:05;;;;;;;13.75;7.03;;;11.00;99.90;;;;;;5029813;28;20041;-72
2023/10/19 00:10:37;;;;;;;13.77;7.10;;;11.00;99.90;;;;;;5031054;28;20113;-72
2023/10/19 00:13:08;;;;;;;13.80;7.13;;;11.10;99.90;;;;;;5019569;28;20116;-72
2023/10/19 00:15:58;;;;;;;13.75;7.45;;;11.00;99.90;;;;;;5015979;28;20033;-71
2023/10/19 00:18:23;;;;;;;13.18;7.25;;;11.00;99.90;;;;;;5025735;28;20042;-72
2023/10/19 00:20:52;;;;;;;16.13;8.35;;;11.10;99.90;;;;;;5019491;28;20041;-72
2023/10/19 00:23:24;;;;;;;14.05;7.82;;;11.10;99.90;;;;;;5015642;28;20026;-72
2023/10/19 00:25:53;;;;;;;16.85;8.15;;;11.10;99.90;;;;;;5028583;28;20033;-72
2023/10/19 00:28:19;;;;;;;15.02;7.53;;;11.20;99.90;;;;;;5017218;28;20041;-71
2023/10/19 00:30:45;;;;;;;14.20;8.27;;;11.20;99.90;;;;;;5028872;28;20033;-72
2023/10/19 00:33:21;;;;;;;15.88;8.32;;;11.20;99.90;;;;;;5028574;28;20034;-71
2023/10/19 00:36:06;;;;;;;18.40;8.38;;;11.20;99.90;;;;;;5014899;28;20041;-72
2023/10/19 00:41:11;;;;;;;19.17;9.82;;;11.30;99.90;;;;;;5027874;28;20041;-71
2023/10/19 00:43:44;;;;;;;15.90;8.80;;;11.40;99.90;;;;;;5037983;28;20422;-70
2023/10/19 00:46:20;;;;;;;19.00;8.85;;;11.40;99.90;;;;;;5024634;28;20034;-71
2023/10/19 00:48:58;;;;;;;19.50;9.02;;;11.50;99.90;;;;;;5028249;28;20029;-70
2023/10/19 00:54:08;;;;;;;16.85;8.45;;;11.50;99.90;;;;;;5026971;28;20033;-71
2023/10/19 00:56:34;;;;;;;18.35;8.88;;;11.50;99.90;;;;;;5017113;28;20121;-72
2023/10/19 00:59:12;;;;;;;17.63;9.05;;;11.50;99.90;;;;;;5028219;28;20037;-72
2023/10/19 01:01:43;;;;;;;17.65;9.20;;;11.50;99.90;;;;;;5015076;28;20072;-71
2023/10/19 01:04:21;;;;;;;19.05;9.57;;;11.50;99.90;;;;;;5014042;28;20584;-72
2023/10/19 01:07:07;;;;;;;18.13;8.95;;;11.50;99.90;;;;;;5010826;28;20482;-72
2023/10/19 01:09:36;;;;;;;20.98;9.23;;;11.60;99.90;;;;;;5028001;28;20040;-71
2023/10/19 01:12:21;;;;;;;22.10;9.35;;;11.60;99.90;;;;;;5013505;28;20025;-73
2023/10/19 01:15:01;;;;;;;17.60;9.80;;;11.50;99.90;;;;;;5032442;28;20036;-71
2023/10/19 01:17:29;;;;;;;18.42;9.82;;;11.70;99.90;;;;;;5033535;28;20036;-71
2023/10/19 01:19:57;;;;;;;20.85;9.82;;;11.70;99.90;;;;;;5047757;28;20029;-70
2023/10/19 01:22:26;;;;;;;21.45;10.38;;;11.70;99.90;;;;;;5035355;28;20056;-71
2023/10/19 01:24:53;;;;;;;24.20;10.27;;;11.70;99.90;;;;;;5033976;28;20067;-71
2023/10/19 01:27:20;;;;;;;21.45;10.43;;;11.80;99.90;;;;;;5052080;28;20601;-72
2023/10/19 01:29:45;;;;;;;21.45;10.23;;;11.90;99.90;;;;;;5029380;28;20033;-73
2023/10/19 01:32:15;;;;;;;21.50;10.43;;;11.80;99.90;;;;;;5046965;28;20436;-72
2023/10/19 01:34:40;;;;;;;22.23;10.55;;;11.80;99.90;;;;;;5047493;28;20028;-71
2023/10/19 01:37:06;;;;;;;20.70;10.07;;;11.80;99.90;;;;;;5047135;28;20120;-70
2023/10/19 01:39:35;;;;;;;21.25;9.45;;;11.80;99.90;;;;;;5029103;28;20028;-72
2023/10/19 01:42:01;;;;;;;19.15;9.82;;;11.80;99.90;;;;;;5042189;28;20041;-71
2023/10/19 01:44:27;;;;;;;20.20;9.65;;;11.90;99.90;;;;;;5046690;28;20029;-71
2023/10/19 01:46:53;;;;;;;22.60;9.45;;;12.00;99.90;;;;;;5047088;28;20498;-73
2023/10/19 01:49:26;;;;;;;22.13;9.63;;;12.00;99.90;;;;;;5047767;28;20033;-72
2023/10/19 01:51:53;;;;;;;21.55;9.32;;;12.00;99.90;;;;;;5047231;28;20074;-71
2023/10/19 01:54:23;;;;;;;23.23;9.48;;;12.20;99.90;;;;;;5028638;28;20040;-71
2023/10/19 01:56:51;;;;;;;18.83;9.38;;;12.30;99.90;;;;;;5028904;28;20398;-71
2023/10/19 01:59:16;;;;;;;22.77;9.23;;;12.40;99.90;;;;;;5028598;28;20037;-73
2023/10/19 02:01:45;;;;;;;20.15;8.52;;;12.40;99.90;;;;;;5047077;28;20455;-73
2023/10/19 02:04:13;;;;;;;19.13;8.23;;;12.40;99.90;;;;;;5045527;28;20029;-71
2023/10/19 02:06:41;;;;;;;21.77;9.05;;;12.50;99.90;;;;;;5009021;28;20511;-72
2023/10/19 02:09:26;;;;;;;21.77;8.85;;;12.60;99.90;;;;;;5036541;28;20430;-72
2023/10/19 02:11:56;;;;;;;19.98;8.00;;;12.70;99.90;;;;;;5008493;28;20063;-72
2023/10/19 02:14:21;;;;;;;24.67;9.05;;;12.70;99.90;;;;;;5026484;28;20037;-71
2023/10/19 02:16:53;;;;;;;14.52;7.47;;;12.70;99.90;;;;;;5026375;28;20037;-72
2023/10/19 02:19:20;;;;;;;17.92;7.65;;;12.80;99.90;;;;;;5026797;28;20034;-72
2023/10/19 02:21:48;;;;;;;19.38;8.13;;;12.80;99.90;;;;;;5026782;28;20030;-73
2023/10/19 02:24:14;;;;;;;26.92;7.93;;;12.90;99.90;;;;;;5008855;28;20403;-70
2023/10/19 02:26:41;;;;;;;18.10;7.60;;;12.90;99.90;;;;;;5009162;28;20030;-72
2023/10/19 02:29:10;;;;;;;28.65;8.73;;;12.90;99.90;;;;;;5008939;28;20516;-72
2023/10/19 02:31:40;;;;;;;24.98;7.95;;;12.90;99.90;;;;;;5028848;28;20044;-71
2023/10/19 02:34:10;;;;;;;24.13;8.10;;;12.90;99.90;;;;;;5039170;28;20112;-71
2023/10/19 02:36:37;;;;;;;21.10;8.30;;;13.00;99.90;;;;;;5009166;28;20029;-71
2023/10/19 02:39:09;;;;;;;21.33;8.15;;;13.00;99.90;;;;;;5034940;28;20033;-71
2023/10/19 02:41:36;;;;;;;28.98;8.40;;;13.00;99.90;;;;;;5012415;28;20042;-71
2023/10/19 02:46:30;;;;;;;19.83;8.15;;;13.10;99.90;;;;;;5047785;28;20028;-72
2023/10/19 02:48:56;;;;;;;18.77;7.25;;;13.10;99.90;;;;;;5066949;28;20024;-72
2023/10/19 02:51:22;;;;;;;18.95;8.00;;;13.10;99.90;;;;;;5066601;28;20038;-71
2023/10/19 02:53:48;;;;;;;17.58;6.93;;;13.20;99.90;;;;;;5066215;28;20401;-73
2023/10/19 02:56:19;;;;;;;21.02;7.03;;;13.20;99.90;;;;;;5066395;28;20086;-72
2023/10/19 02:58:49;;;;;;;17.45;7.13;;;13.20;99.90;;;;;;5057194;28;20037;-74
2023/10/19 03:01:21;;;;;;;20.55;7.28;;;13.30;99.90;;;;;;5046328;28;20061;-70
2023/10/19 03:03:49;;;;;;;16.50;6.68;;;13.20;99.90;;;;;;5046010;28;20459;-71
2023/10/19 03:06:19;;;;;;;19.33;7.32;;;13.20;99.90;;;;;;5050206;28;20033;-71
2023/10/19 03:08:46;;;;;;;15.05;6.13;;;13.20;99.90;;;;;;5032605;28;20049;-74
2023/10/19 03:11:13;;;;;;;15.38;6.47;;;13.30;99.90;;;;;;5032454;28;20474;-72
2023/10/19 03:13:40;;;;;;;19.83;5.60;;;13.30;99.90;;;;;;5050750;28;20041;-73
2023/10/19 03:16:07;;;;;;;16.70;6.80;;;13.40;99.90;;;;;;5036115;28;20498;-72
2023/10/19 03:18:34;;;;;;;18.65;5.63;;;13.40;99.90;;;;;;5032106;28;20062;-73
2023/10/19 03:21:03;;;;;;;10.25;5.05;;;13.40;99.90;;;;;;5050042;28;20120;-71
2023/10/19 03:23:29;;;;;;;15.13;5.13;;;13.50;99.90;;;;;;5031768;28;20029;-72
2023/10/19 03:28:40;;;;;;;11.00;4.18;;;13.50;99.90;;;;;;5053435;28;20032;-74
2023/10/19 03:31:07;;;;;;;13.63;4.53;;;13.50;99.90;;;;;;5049892;28;20032;-71
2023/10/19 03:33:36;;;;;;;13.13;4.28;;;13.50;99.90;;;;;;5044158;28;20063;-72
2023/10/19 03:36:04;;;;;;;9.27;3.53;;;13.50;99.90;;;;;;5032569;28;20037;-72
2023/10/19 03:38:34;;;;;;;10.18;3.33;;;13.60;99.90;;;;;;5051221;28;20083;-72
2023/10/19 03:41:06;;;;;;;;;;;13.60;99.90;;;;;;5033213;28;20029;-71
2023/10/19 03:43:32;;;;;;;9.80;3.13;;;13.60;99.90;;;;;;5027795;28;19923;-71
2023/10/19 03:45:58;;;;;;;9.70;3.42;;;13.60;99.90;;;;;;5049461;28;20478;-72
2023/10/19 03:48:30;;;;;;;5.57;2.65;;;13.50;99.90;;;;;;5031375;28;20460;-73
2023/10/19 03:50:56;;;;;;;7.05;2.67;;;13.60;99.90;;;;;;5049214;28;20087;-72
2023/10/19 03:53:23;;;;;;;7.78;2.67;;;13.60;99.90;;;;;;5031094;28;20041;-72
2023/10/19 03:55:50;;;;;;;5.70;2.47;;;13.60;99.90;;;;;;5048895;28;20037;-72
2023/10/19 03:58:16;;;;;;;5.30;2.00;;;13.60;99.90;;;;;;5049183;28;20079;-71
2023/10/19 04:00:44;;;;;;;5.75;1.70;;;13.60;99.90;;;;;;5049649;28;20040;-74
2023/10/19 04:03:10;;;;;;;6.95;1.90;;;13.60;99.90;;;;;;5030425;28;20047;-71
2023/10/19 04:05:38;;;;;;;5.15;1.50;;;13.50;99.90;;;;;;5031687;28;20700;-73
2023/10/19 04:08:12;;;;;;;4.53;1.38;;;13.50;99.90;;;;;;5054303;28;20092;-72
2023/10/19 04:10:38;;;;;;;5.65;1.30;;;13.40;99.90;;;;;;5031584;28;20103;-72
2023/10/19 04:13:09;;;;;;;6.88;1.33;;;13.40;99.90;;;;;;5031013;28;20045;-73
2023/10/19 04:15:35;;;;;;;5.97;1.25;;;13.40;99.90;;;;;;5048595;28;20029;-73
2023/10/19 04:18:02;;;;;;;2.00;1.00;;;13.30;99.90;;;;;;5029926;28;20086;-74
2023/10/19 04:23:14;;;;;;;4.72;1.05;;;13.20;99.90;;;;;;5048141;28;20048;-72
2023/10/19 04:25:39;;;;;;;2.72;1.02;;;13.20;99.90;;;;;;5054341;28;20139;-73
2023/10/19 04:28:05;;;;;;;2.60;1.00;;;13.10;99.90;;;;;;5050225;28;20125;-73
2023/10/19 04:30:33;;;;;;;4.32;0.90;;;13.10;99.90;;;;;;5049897;28;20056;-72
2023/10/19 04:32:59;;;;;;;5.43;0.80;;;13.10;99.90;;;;;;5030206;28;20372;-73
2023/10/19 04:35:29;;;;;;;4.53;0.77;;;13.10;99.90;;;;;;5047902;28;20042;-73
2023/10/19 04:37:56;;;;;;;3.90;0.50;;;13.10;99.90;;;;;;5046251;28;20024;-73
2023/10/19 04:40:22;;;;;;;5.47;0.70;;;13.10;99.90;;;;;;5047350;28;20025;-73
2023/10/19 04:42:50;;;;;;;2.42;0.60;;;13.10;99.90;;;;;;5047946;28;20028;-72
2023/10/19 04:45:16;;;;;;;7.82;0.55;;;13.10;99.90;;;;;;5048019;28;20037;-73
2023/10/19 04:47:42;;;;;;;5.20;0.60;;;13.10;99.90;;;;;;5042069;28;20078;-72
2023/10/19 04:50:10;;;;;;;4.35;0.63;;;13.10;99.90;;;;;;5037821;28;20817;-73
2023/10/19 04:52:36;;;;;;;4.72;0.52;;;13.10;99.90;;;;;;5035098;28;20135;-72
2023/10/19 04:55:02;;;;;;;6.50;0.70;;;13.20;99.90;;;;;;5048031;28;20087;-73
2023/10/19 04:57:28;;;;;;;1.20;0.50;;;13.20;99.90;;;;;;5047995;28;20040;-72
2023/10/19 04:59:53;;;;;;;4.10;0.45;;;13.30;99.90;;;;;;5029938;28;20044;-74
2023/10/19 05:02:19;;;;;;;6.35;0.57;;;13.20;99.90;;;;;;5047808;28;20774;-72
2023/10/19 05:04:48;;;;;;;2.15;0.50;;;13.30;99.90;;;;;;5048382;28;20025;-72
2023/10/19 05:07:17;;;;;;;4.20;0.50;;;13.20;99.90;;;;;;5029834;28;20129;-71
2023/10/19 05:09:46;;;;;;;4.20;0.50;;;13.20;99.90;;;;;;5010581;28;20120;-72
2023/10/19 05:12:14;;;;;;;2.85;0.57;;;13.20;99.90;;;;;;5013183;28;20116;-71
2023/10/19 05:14:43;;;;;;;2.38;0.40;;;13.30;99.90;;;;;;5006925;28;20030;-72
2023/10/19 05:17:09;;;;;;;2.97;0.50;;;13.30;99.90;;;;;;5023487;28;20025;-72
2023/10/19 05:19:36;;;;;;;8.13;0.73;;;13.30;99.90;;;;;;5006419;28;20040;-74
2023/10/19 05:22:04;;;;;;;3.03;0.73;;;13.30;99.90;;;;;;5021412;28;20030;-73
2023/10/19 05:24:30;;;;;;;3.58;0.75;;;13.30;99.90;;;;;;5017447;28;20029;-74
2023/10/19 05:26:55;;;;;;;6.13;0.80;;;13.30;99.90;;;;;;5022893;28;20513;-75
2023/10/19 05:29:22;;;;;;;3.63;0.47;;;13.30;99.90;;;;;;5019812;28;20040;-71
2023/10/19 05:31:53;;;;;;;2.35;0.57;;;13.30;99.90;;;;;;5018345;28;20025;-72
2023/10/19 05:34:20;;;;;;;3.08;0.45;;;13.30;99.90;;;;;;5000022;28;20037;-73
2023/10/19 05:36:48;;;;;;;3.88;0.60;;;13.30;99.90;;;;;;5019823;28;20117;-73
2023/10/19 05:39:14;;;;;;;5.38;0.50;;;13.40;99.90;;;;;;5005335;28;20042;-71
2023/10/19 05:41:40;;;;;;;3.78;0.57;;;13.40;99.90;;;;;;5026228;28;20033;-70
2023/10/19 05:44:05;;;;;;;3.30;0.57;;;13.40;99.90;;;;;;5001106;28;20037;-74
2023/10/19 05:46:31;;;;;;;1.80;0.22;;;13.40;99.90;;;;;;5004707;28;20514;-73
2023/10/19 05:48:57;;;;;;;4.07;0.60;;;13.30;99.90;;;;;;5022376;28;20025;-74
2023/10/19 05:51:24;;;;;;;1.52;0.45;;;13.40;99.90;;;;;;5024880;28;20529;-75
2023/10/19 05:53:50;;;;;;;3.05;0.80;;;13.30;99.90;;;;;;5023628;28;20029;-72
2023/10/19 05:56:17;;;;;;;6.25;0.60;;;13.40;99.90;;;;;;5011886;28;20041;-74
2023/10/19 05:58:43;;;;;;;2.65;0.45;;;13.40;99.90;;;;;;5023709;28;20036;-72
2023/10/19 06:01:08;;;;;;;7.55;0.80;;;13.40;99.90;;;;;;5016858;28;20056;-73
2023/10/19 06:03:34;;;;;;;6.50;0.50;;;13.40;99.90;;;;;;5002078;28;20479;-74
2023/10/19 06:06:00;;;;;;;3.78;0.50;;;13.40;99.90;;;;;;5018835;28;20725;-76
2023/10/19 06:08:27;;;;;;;3.13;0.38;;;13.40;99.90;;;;;;5025393;28;20033;-72
2023/10/19 06:10:53;;;;;;;7.85;1.05;;;13.40;99.90;;;;;;5022788;28;20025;-72
2023/10/19 06:13:19;;;;;;;4.90;0.35;;;13.40;99.90;;;;;;5019186;28;20021;-72
2023/10/19 06:15:44;;;;;;;7.90;0.50;;;13.40;99.90;;;;;;5024102;28;20036;-72
2023/10/19 06:18:10;;;;;;;2.72;0.45;;;13.40;99.90;;;;;;5022714;28;20475;-75
2023/10/19 06:20:36;;;;;;;6.32;0.82;;;13.40;99.90;;;;;;5014854;28;20041;-73
2023/10/19 06:23:05;;;;;;;3.63;0.52;;;13.40;99.90;;;;;;5019745;28;20026;-73
2023/10/19 06:25:32;;;;;;;2.05;0.60;;;13.40;99.90;;;;;;5014639;28;20049;-73
2023/10/19 06:27:59;;;;;;;11.25;1.20;;;13.40;99.90;;;;;;5020803;28;20092;-72
2023/10/19 06:30:25;;;;;;;4.07;0.77;;;13.40;99.90;;;;;;5021867;28;20053;-73
2023/10/19 06:32:53;;;;;;;5.57;0.80;;;13.40;99.90;;;;;;5011407;28;20557;-73
2023/10/19 06:35:20;;;;;;;2.85;0.60;;;13.40;99.90;;;;;;5022856;28;20037;-74
2023/10/19 06:37:46;;;;;;;5.57;0.68;;;13.40;99.90;;;;;;5020990;28;20036;-73
2023/10/19 06:40:16;;;;;;;5.80;0.40;;;13.40;99.90;;;;;;5019704;28;20038;-76
2023/10/19 06:42:46;;;;;;;2.17;0.60;;;13.30;99.90;;;;;;5024313;28;20807;-73
2023/10/19 06:45:15;;;;;;;4.73;1.27;;;13.40;99.90;;;;;;5019512;28;20071;-74
2023/10/19 06:47:45;;;;;;;6.72;0.60;;;13.30;99.90;;;;;;5008683;28;20034;-74
2023/10/19 06:50:12;;;;;;;5.38;0.60;;;13.30;99.90;;;;;;5012295;28;20034;-73
2023/10/19 06:52:39;;;;;;;8.77;0.80;;;13.30;99.90;;;;;;5014547;28;20047;-73
2023/10/19 06:55:07;;;;;;;9.02;0.98;;;13.30;99.90;;;;;;5013284;28;20027;-74
2023/10/19 06:57:33;;;;;;;5.50;0.82;;;13.40;99.90;;;;;;5041648;28;20037;-72
2023/10/19 06:59:59;;;;;;;5.72;0.80;;;13.40;99.90;;;;;;5022614;28;20084;-74
2023/10/19 07:02:26;;;;;;;7.97;0.90;;;13.40;99.90;;;;;;5019882;28;20034;-74
2023/10/19 07:04:52;;;;;;;10.45;0.90;;;13.40;99.90;;;;;;5002548;28;20437;-74
2023/10/19 07:07:18;;;;;;;3.33;0.82;;;13.50;99.90;;;;;;5021517;28;20095;-73
2023/10/19 07:09:43;;;;;;;4.88;0.73;;;13.50;99.90;;;;;;5009088;28;20033;-72
2023/10/19 07:12:09;;;;;;;7.63;0.80;;;13.50;99.90;;;;;;5018693;28;20078;-74
2023/10/19 07:14:34;;;;;;;2.70;0.85;;;13.60;99.90;;;;;;5017933;28;20040;-72
2023/10/19 07:17:00;;;;;;;5.75;1.67;;;13.60;99.90;;;;;;5023124;28;20611;-73
2023/10/19 07:19:26;;;;;;;4.78;1.13;;;13.60;99.90;;;;;;5017722;28;20047;-74
2023/10/19 07:21:57;;;;;;;4.97;1.15;;;13.60;99.90;;;;;;5019348;28;20445;-76
2023/10/19 07:24:24;;;;;;;8.70;0.90;;;13.60;99.90;;;;;;5017089;28;20021;-72
2023/10/19 07:26:53;;;;;;;8.10;0.82;;;13.70;99.90;;;;;;5018552;28;20501;-73
2023/10/19 07:29:22;;;;;;;6.03;0.53;;;13.70;99.90;;;;;;5015648;28;20048;-74
2023/10/19 07:31:48;;;;;;;6.68;0.70;;;13.70;99.90;;;;;;5013688;28;20521;-74
2023/10/19 07:34:15;;;;;;;7.20;1.08;;;13.70;99.90;;;;;;5017701;28;20029;-73
2023/10/19 07:36:42;;;;;;;5.50;0.63;;;13.80;99.90;;;;;;5021145;28;20041;-74
2023/10/19 07:39:14;;;;;;;5.05;0.80;;;13.80;99.90;;;;;;5017195;28;20045;-73
2023/10/19 07:41:43;;;;;;;4.55;1.00;;;13.80;99.90;;;;;;5019070;28;20446;-72
2023/10/19 07:44:08;;;;;;;5.25;0.88;;;13.90;99.90;;;;;;5023599;28;20490;-72
2023/10/19 07:46:34;;;;;;;3.97;1.17;;;13.90;99.90;;;;;;5022234;28;20121;-74
2023/10/19 07:49:00;;;;;;;4.35;0.65;;;13.90;99.90;;;;;;5006600;28;20045;-73
2023/10/19 07:51:26;;;;;;;9.00;0.90;;;13.90;99.90;;;;;;5009677;28;20038;-74
2023/10/19 07:53:52;;;;;;;3.92;0.85;;;14.00;99.90;;;;;;5007539;28;20049;-75
2023/10/19 07:56:17;;;;;;;4.97;0.95;;;14.00;99.90;;;;;;5010325;28;20041;-73
2023/10/19 07:58:43;;;;;;;5.50;0.75;;;14.00;99.90;;;;;;5010498;28;20064;-72
2023/10/19 08:01:08;;;;;;;7.78;0.70;;;14.00;99.90;;;;;;5010966;28;20049;-74
2023/10/19 08:03:35;;;;;;;4.28;1.02;;;14.00;99.90;;;;;;5047629;28;20690;-73
2023/10/19 08:06:00;;;;;;;8.10;1.42;;;14.00;99.90;;;;;;5017740;28;20462;-73
2023/10/19 08:08:33;;;;;;;12.13;1.38;;;14.00;99.90;;;;;;5024723;28;20056;-72
2023/10/19 08:10:59;;;;;;;5.38;0.75;;;14.00;99.90;;;;;;5006931;28;20120;-73
2023/10/19 08:13:26;;;;;;;13.43;1.75;;;14.10;99.90;;;;;;5018430;28;20450;-72
2023/10/19 08:15:51;;;;;;;9.10;1.65;;;14.20;99.90;;;;;;5020008;28;20099;-72
2023/10/19 08:18:17;;;;;;;5.50;0.88;;;14.20;99.90;;;;;;5024359;28;20065;-72
2023/10/19 08:20:45;;;;;;;4.50;1.73;;;14.10;99.90;;;;;;5026106;28;20059;-74
2023/10/19 08:23:13;;;;;;;4.53;0.60;;;14.20;99.90;;;;;;5024678;28;20364;-73
2023/10/19 08:25:39;;;;;;;11.30;1.38;;;14.20;99.90;;;;;;5025475;28;20132;-72
2023/10/19 08:28:06;;;;;;;5.95;1.05;;;14.20;99.90;;;;;;5013873;28;20042;-73
2023/10/19 08:30:34;;;;;;;8.77;1.08;;;14.20;99.90;;;;;;5030628;28;20029;-73
2023/10/19 08:32:59;;;;;;;9.57;1.17;;;14.30;99.90;;;;;;5019149;28;20033;-72
2023/10/19 08:35:26;;;;;;;10.23;1.50;;;14.30;99.90;;;;;;5024658;28;20140;-73
2023/10/19 08:37:57;;;;;;;7.30;1.00;;;14.30;99.90;;;;;;5015386;28;20030;-72
2023/10/19 08:40:26;;;;;;;5.53;0.90;;;14.30;99.90;;;;;;5034021;28;20044;-73
2023/10/19 08:42:53;;;;;;;8.35;1.50;;;14.40;99.90;;;;;;5019095;28;20037;-73
2023/10/19 08:45:21;;;;;;;8.38;0.85;;;14.50;99.90;;;;;;5012831;28;20068;-72
2023/10/19 08:47:47;;;;;;;6.50;1.15;;;14.50;99.90;;;;;;5017330;28;20025;-74
2023/10/19 08:50:14;;;;;;;4.72;0.82;;;14.60;99.90;;;;;;5018955;28;20060;-72
2023/10/19 08:52:42;;;;;;;12.48;1.25;;;14.70;99.90;;;;;;5022025;28;20029;-74
2023/10/19 08:55:09;;;;;;;3.47;0.90;;;14.80;99.90;;;;;;5022251;28;20487;-72
2023/10/19 08:57:36;;;;;;;9.70;1.00;;;14.90;99.90;;;;;;5028377;28;20494;-72
2023/10/19 09:00:06;;;;;;;9.57;0.85;;;15.00;99.90;;;;;;5019500;28;20076;-72
2023/10/19 09:02:33;;;;;;;;;;;15.00;99.90;;;;;;5022307;28;20049;-72
2023/10/19 09:04:59;;;;;;;3.35;0.90;;;15.10;99.90;;;;;;5006438;28;19913;-74
2023/10/19 09:07:30;;;;;;;10.95;1.27;;;15.10;99.90;;;;;;5018062;28;20037;-72
2023/10/19 09:09:57;;;;;;;6.28;1.33;;;15.20;99.90;;;;;;5014471;28;20026;-74
2023/10/19 09:12:23;;;;;;;7.10;0.95;;;15.20;99.90;;;;;;5007155;28;20573;-74
2023/10/19 09:14:49;;;;;;;7.55;1.10;;;15.20;99.90;;;;;;5013071;28;20045;-73
2023/10/19 09:17:17;;;;;;;10.40;1.30;;;15.40;99.90;;;;;;5025217;28;20403;-72
2023/10/19 09:19:47;;;;;;;8.50;1.20;;;15.50;99.90;;;;;;5015740;28;20033;-73
2023/10/19 09:22:19;;;;;;;8.02;1.20;;;15.60;99.90;;;;;;5021997;28;20121;-73
2023/10/19 09:24:49;;;;;;;5.63;1.50;;;15.60;99.90;;;;;;5024772;28;20212;-74
2023/10/19 09:27:19;;;;;;;9.52;0.85;;;15.70;99.90;;;;;;5029462;28;20516;-73
2023/10/19 09:29:47;;;;;;;8.02;0.88;;;15.70;99.90;;;;;;5007975;28;20081;-72
2023/10/19 09:32:15;;;;;;;8.10;1.15;;;15.80;99.90;;;;;;5016360;28;20037;-73
2023/10/19 09:34:43;;;;;;;12.20;1.70;;;15.90;99.90;;;;;;5026389;28;20403;-73
2023/10/19 09:37:10;;;;;;;4.82;0.93;;;15.90;99.90;;;;;;5015831;28;20600;-73
2023/10/19 09:39:36;;;;;;;6.28;1.08;;;16.00;99.90;;;;;;5025477;28;20041;-74
2023/10/19 09:42:11;;;;;;;8.02;1.40;;;15.90;99.90;;;;;;5024842;28;20242;-74
2023/10/19 09:44:54;;;;;;;5.70;0.73;;;15.90;99.90;;;;;;5016674;28;20040;-73
2023/10/19 09:47:30;;;;;;;5.45;1.02;;;16.00;99.90;;;;;;5015909;28;20504;-73
2023/10/19 09:49:57;;;;;;;5.18;1.08;;;15.90;99.90;;;;;;5020890;28;20407;-71
2023/10/19 09:52:23;;;;;;;7.95;0.70;;;16.00;99.90;;;;;;5020148;28;20038;-71
2023/10/19 09:55:08;;;;;;;4.20;0.80;;;15.90;99.90;;;;;;5017008;28;20415;-74
2023/10/19 09:57:44;;;;;;;7.25;1.02;;;15.90;99.90;;;;;;5022862;28;20069;-73
2023/10/19 10:00:14;;;;;;;6.13;1.10;;;15.90;99.90;;;;;;5019466;28;20040;-73
2023/10/19 10:02:42;;;;;;;11.88;1.30;;;15.90;99.90;;;;;;5019303;28;20037;-72
2023/10/19 10:05:42;;;;;;;7.47;0.70;;;15.90;99.90;;;;;;5013512;28;20042;-72
2023/10/19 10:08:31;;;;;;;9.07;1.83;;;16.00;99.90;;;;;;5026978;28;24187;-73
2023/10/19 10:10:57;;;;;;;3.47;0.75;;;16.00;99.90;;;;;;5021454;28;20033;-73
2023/10/19 10:13:28;;;;;;;9.65;1.98;;;15.90;99.90;;;;;;5023507;28;20875;-73
2023/10/19 10:15:55;;;;;;;7.03;1.38;;;16.00;99.90;;;;;;5010333;28;20064;-74
2023/10/19 10:18:24;;;;;;;5.20;0.98;;;16.00;99.90;;;;;;5019688;28;20022;-73
2023/10/19 10:21:10;;;;;;;9.82;0.93;;;16.00;99.90;;;;;;5029822;28;20132;-73
2023/10/19 10:23:55;;;;;;;3.53;0.82;;;16.10;99.90;;;;;;5021333;28;20025;-73
2023/10/19 10:26:25;;;;;;;9.25;1.45;;;16.20;99.90;;;;;;5019519;28;20033;-73
2023/10/19 10:29:14;;;;;;;9.48;1.17;;;16.20;99.90;;;;;;5018308;28;20036;-73
2023/10/19 10:31:44;;;;;;;9.25;1.15;;;16.20;99.90;;;;;;5004741;28;20616;-73
2023/10/19 10:34:12;;;;;;;6.60;0.73;;;16.20;99.90;;;;;;5023174;28;20097;-74
2023/10/19 10:37:02;;;;;;;7.20;1.52;;;16.20;99.90;;;;;;5036790;28;20032;-74
2023/10/19 10:39:28;;;;;;;7.75;1.40;;;16.20;99.90;;;;;;5018752;28;20028;-73
2023/10/19 10:41:57;;;;;;;8.85;1.08;;;16.20;99.90;;;;;;5023475;28;20049;-74
2023/10/19 10:44:44;;;;;;;6.25;0.90;;;16.20;99.90;;;;;;5007605;28;20057;-73
2023/10/19 10:47:16;;;;;;;6.78;1.27;;;16.20;99.90;;;;;;5006142;28;20038;-73
2023/10/19 10:49:52;;;;;;;7.80;1.35;;;16.20;99.90;;;;;;5018213;28;20044;-73
2023/10/19 10:52:29;;;;;;;10.13;1.25;;;16.30;99.90;;;;;;5012607;28;20114;-73
2023/10/19 10:54:58;;;;;;;7.22;1.60;;;16.40;99.90;;;;;;5041571;28;20511;-73
2023/10/19 10:57:31;;;;;;;9.40;1.67;;;16.40;99.90;;;;;;5043491;28;20045;-73
2023/10/19 11:00:15;;;;;;;10.98;1.83;;;16.50;99.90;;;;;;5043108;28;21371;-74
2023/10/19 11:02:45;;;;;;;10.20;1.00;;;16.70;99.90;;;;;;5041387;28;20414;-74
2023/10/19 11:05:13;;;;;;;7.60;1.20;;;16.80;99.90;;;;;;5023065;28;20034;-75
2023/10/19 11:07:59;;;;;;;4.28;1.05;;;16.90;99.90;;;;;;5025095;28;20461;-73
2023/10/19 11:10:27;;;;;;;12.43;0.90;;;16.90;99.90;;;;;;5018762;28;20402;-73
2023/10/19 11:13:03;;;;;;;5.15;1.02;;;16.80;99.90;;;;;;5033928;28;20139;-73
2023/10/19 11:15:29;;;;;;;6.50;1.05;;;16.80;99.90;;;;;;5030569;28;20037;-74
2023/10/19 11:17:55;;;;;;;5.60;1.05;;;16.80;99.90;;;;;;5023688;28;20403;-75
2023/10/19 11:20:22;;;;;;;7.57;0.90;;;16.90;99.90;;;;;;5019647;28;20037;-75
2023/10/19 11:22:53;;;;;;;7.47;0.73;;;16.90;99.90;;;;;;5043965;28;20045;-73
2023/10/19 11:25:23;;;;;;;4.43;1.15;;;16.90;99.90;;;;;;5010088;28;20041;-75
2023/10/19 11:27:48;;;;;;;;;;;16.90;99.90;;;;;;5016721;28;20033;-73
2023/10/19 11:30:23;;;;;;;5.10;0.80;;;17.00;99.90;;;;;;5011317;28;19928;-73
2023/10/19 11:32:52;;;;;;;11.02;1.30;;;17.00;99.90;;;;;;5021376;28;20033;-72
2023/10/19 11:35:19;;;;;;;5.88;0.90;;;16.90;99.90;;;;;;5005843;28;20029;-73
2023/10/19 11:37:53;;;;;;;8.57;1.10;;;16.90;99.90;;;;;;5011270;28;20419;-74
2023/10/19 11:40:21;;;;;;;7.50;1.13;;;16.90;99.90;;;;;;5038561;28;20050;-75
2023/10/19 11:42:47;;;;;;;8.80;2.67;;;17.00;99.90;;;;;;5019404;28;20061;-75
2023/10/19 11:45:13;;;;;;;6.63;0.93;;;17.00;99.90;;;;;;5009092;28;20462;-75
2023/10/19 11:47:38;;;;;;;12.50;0.93;;;17.10;99.90;;;;;;5022847;28;20033;-74
2023/10/19 11:50:05;;;;;;;11.63;1.85;;;17.00;99.90;;;;;;5003750;28;20042;-73
2023/10/19 11:52:31;;;;;;;10.30;1.83;;;17.00;99.90;;;;;;5023375;28;20030;-75
2023/10/19 11:54:56;;;;;;;9.88;1.35;;;17.00;99.90;;;;;;5026210;28;20025;-74
2023/10/19 11:57:24;;;;;;;11.45;1.77;;;17.10;99.90;;;;;;5026069;28;20410;-76
2023/10/19 11:59:52;;;;;;;7.43;1.10;;;17.20;99.90;;;;;;5011913;28;20560;-72
2023/10/19 12:02:18;;;;;;;7.15;1.02;;;17.20;99.90;;;;;;5018280;28;20042;-73
2023/10/19 12:04:45;;;;;;;5.00;1.20;;;17.20;99.90;;;;;;5017417;28;20045;-74
2023/10/19 12:07:11;;;;;;;6.05;1.00;;;17.10;99.90;;;;;;5019216;28;20030;-74
2023/10/19 12:09:37;;;;;;;9.57;1.23;;;17.10;99.90;;;;;;5022310;28;20041;-73
2023/10/19 12:12:05;;;;;;;9.88;1.10;;;17.10;99.90;;;;;;5024737;28;20475;-74
2023/10/19 12:14:34;;;;;;;8.85;1.25;;;17.10;99.90;;;;;;5022148;28;20057;-75
2023/10/19 12:17:01;;;;;;;5.15;1.50;;;17.00;99.90;;;;;;5020203;28;20576;-75
2023/10/19 12:19:29;;;;;;;5.88;0.93;;;17.00;99.90;;;;;;5021618;28;20049;-74
2023/10/19 12:21:55;;;;;;;6.13;0.93;;;17.00;99.90;;;;;;5017554;28;20367;-74
2023/10/19 12:24:21;;;;;;;7.00;1.02;;;17.00;99.90;;;;;;5021790;28;20041;-73
2023/10/19 12:26:47;;;;;;;9.65;1.10;;;17.00;99.90;;;;;;5022410;28;20037;-74
2023/10/19 12:29:14;;;;;;;9.93;1.30;;;16.90;99.90;;;;;;5024054;28;20140;-74
2023/10/19 12:31:40;;;;;;;10.77;1.35;;;17.00;99.90;;;;;;5022196;28;20076;-75
2023/10/19 12:34:11;;;;;;;7.78;0.90;;;17.00;99.90;;;;;;5022167;28;20065;-73
2023/10/19 12:36:37;;;;;;;9.48;1.08;;;17.00;99.90;;;;;;5013042;28;20768;-74
2023/10/19 12:39:06;;;;;;;6.93;1.92;;;17.00;99.90;;;;;;5016414;28;20037;-75
2023/10/19 12:41:32;;;;;;;4.30;0.75;;;17.00;99.90;;;;;;5022301;28;20038;-74
2023/10/19 12:43:58;;;;;;;8.90;0.93;;;17.00;99.90;;;;;;5025528;28;20033;-74
2023/10/19 12:46:30;;;;;;;9.63;0.93;;;16.90;99.90;;;;;;5017926;28;20129;-74
2023/10/19 12:48:58;;;;;;;5.93;0.80;;;16.90;99.90;;;;;;5018504;28;20540;-72
2023/10/19 12:51:25;;;;;;;5.28;0.70;;;16.80;99.90;;;;;;5021888;28;20710;-73
2023/10/19 12:53:51;;;;;;;8.07;1.40;;;16.80;99.90;;;;;;5022657;28;20068;-75
2023/10/19 12:56:18;;;;;;;4.47;1.02;;;16.70;99.90;;;;;;5020366;28;20037;-76
2023/10/19 12:58:44;;;;;;;10.38;1.35;;;16.60;99.90;;;;;;5022075;28;20033;-74
2023/10/19 13:01:16;;;;;;;6.10;1.13;;;16.60;99.90;;;;;;5019454;28;20042;-73
2023/10/19 13:03:45;;;;;;;6.88;1.30;;;16.60;99.90;;;;;;5050559;28;20101;-73